Aviation Digital Data Service (ADDS)

Output produced by METARs form (0639 UTC 24 March 2019)
found at http://www.aviationweather.gov/metar/data/
 
KASJ 240620Z AUTO 00000KT 10SM CLR M01/M01 A3031 RMK AO2 T10061014
KVUJ 240620Z AUTO 00000KT 10SM CLR 01/M01 A3034 RMK AO2 T00121013
KRHP 240620Z AUTO 00000KT 10SM CLR 02/00 A3027 RMK AO2 T00241001
KHBI 240620Z AUTO 00000KT 10SM CLR 02/M03 A3032 RMK AO2 T00221030
KAVL 240554Z AUTO 00000KT 10SM CLR 03/M03 A3030 RMK AO2 SLP257 T00331033 10128 20028 55000
KAVL 240521Z 2406/2506 VRB03KT P6SM BKN180 
     FM241900 19010KT P6SM SCT180 
     FM250000 19004KT P6SM BKN120
       
KMRH 240558Z AUTO 00000KT 10SM CLR 06/04 A3030 RMK AO2 SLP262 T00560039 10128 20050 51003
KBUY 240554Z AUTO 00000KT 10SM CLR 01/M02 A3029 RMK AO2 SLP258 T00111017 10144 20011 51007
KCLT 240552Z 00000KT 9SM SCT250 05/M03 A3029 RMK AO2 SLP256 T00501028 10150 20033 51003
KCLT 240521Z 2406/2512 00000KT P6SM SCT250 
     FM241300 21005KT P6SM SCT250 
     FM241800 21008G17KT P6SM BKN200 
     FM250000 19005KT P6SM FEW045 BKN250 
     FM250500 20005KT P6SM BKN045
       
KCTZ 240620Z AUTO 00000KT 10SM CLR 03/01 A3031 RMK AO2 T00310012
KJQF 240250Z 00000KT 10SM CLR 06/M02 A3031
KONX 240620Z AUTO 10SM CLR 03/03 A3030 RMK AO2 T00330033
KEDE 240620Z AUTO 00000KT 10SM CLR 04/00 A3031 RMK AO2 T00361002
KECG 240554Z 00000KT 10SM CLR 04/00 A3030 RMK AO2 SLP261 T00390000 10122 20022 51007
KECG 240530Z 2406/2506 VRB04KT P6SM SKC 
     FM241600 20008KT P6SM SKC
       
KEYF 240620Z AUTO 19005KT 10SM CLR 05/M01 A3031 RMK AO2 T00491007
KHRJ 240620Z AUTO 00000KT 10SM CLR 03/01 A3030 RMK AO2 T00310007
KFAY 240553Z 00000KT 10SM CLR 04/M01 A3029 RMK AO2 SLP253 T00391006 10139 20039 51002
KFAY 240530Z 2406/2506 00000KT P6SM SKC 
     FM250100 18006KT P6SM BKN130 
     FM250400 19007KT P6SM SCT110
       
K1A5 240620Z AUTO 00000KT 10SM CLR 02/02 A3032 RMK AO2 T00170017
KAKH 240554Z AUTO 00000KT 10SM CLR 07/M04 A3028 RMK AO2 SLP255 T00671044 10144 20061 50002 $
KGWW 240625Z AUTO 00000KT 10SM CLR 02/00 A3031 RMK AO2 T00150003
KGSO 240554Z 00000KT 10SM FEW250 05/M04 A3028 RMK AO2 SLP256 T00501039 10144 20039 51005
KGSO 240530Z 2406/2506 00000KT P6SM FEW250 
     FM241800 22010G15KT P6SM FEW250 
     FM242300 21007KT P6SM BKN120
       
KPGV 240620Z AUTO 00000KT 10SM CLR 02/01 A3030 RMK AO2
KPGV 240528Z 2406/2506 00000KT P6SM SKC 
     FM241500 19005KT P6SM FEW250 AMD LTD TO CLD VIS AND WIND
       
KHSE 240551Z AUTO 33004KT 10SM CLR 10/07 A3030 RMK AO2 SLP259 T01000072 10122 20061 53006 $
KGEV 240620Z AUTO 23003KT 10SM CLR 03/M11 A3027 RMK AO2 T00271111
KDPL 240620Z AUTO 00000KT 10SM CLR 00/M01 A3030 RMK AO2
KFFA 240620Z AUTO 00000KT 10SM CLR 06/02 A3029 RMK AO2 T00600024
KISO 240620Z AUTO 00000KT 10SM CLR 01/00 A3031 RMK AO2 T00091004
KISO 240528Z 2406/2506 00000KT P6SM SKC 
     FM241500 18004KT P6SM FEW250 AMD LTD TO CLD VIS AND WIND
       
KEXX 240620Z AUTO 00000KT 10SM CLR 02/M01 A3029 RMK AO2 T00201006
KIPJ 240635Z AUTO 00000KT 10SM CLR 01/M01 A3029 RMK AO2 T00101015
KLHZ 240620Z AUTO 00000KT 10SM CLR 00/M01 A3032 RMK AO2
KLBT 240520Z 2406/2506 18010KT P6SM SCT250 AMD NOT SKED
       
KMEB 240552Z AUTO 00000KT 10SM CLR 04/01 A3030 RMK AO2 SLP261 T00390011 10139 20028 51002
KEQY 240553Z AUTO 00000KT 10SM CLR 05/M03 A3029 RMK AO2 SLP269 T00501033 10133 20044 51005
KMRN 240620Z AUTO 00000KT 10SM CLR 00/M03 A3032 RMK AO2 T10051031
KMWK 240620Z AUTO 00000KT 10SM CLR 02/M03 A3030 RMK AO2 T00181032
KEWN 240554Z AUTO 00000KT 10SM CLR 02/M01 A3032 RMK AO2 SLP265 T00171006 10100 20017 51005
KEWN 240528Z 2406/2506 00000KT P6SM SKC 
     FM241500 18004KT P6SM FEW250
       
KUKF 240620Z AUTO 00000KT 10SM CLR 00/M03 A3033 RMK AO2
KSUT 240620Z AUTO 00000KT 10SM CLR 05/04 A3032 RMK AO2 T00520036
KHNZ 240045Z AUTO 17003KT 10SM CLR 07/M06 A3025 RMK AO2 T00701057
KSOP 240556Z AUTO 00000KT 10SM CLR 02/00 A3031 RMK AO2 SLP282 T00170000 10117 20017 53005 FZRANO
KRDU 240551Z 00000KT 10SM SCT250 03/M02 A3030 RMK AO2 SLP261 T00281022 10122 20022 51005
KRDU 240530Z 2406/2506 00000KT P6SM SCT250 
     FM241900 22009KT P6SM FEW250 
     FM250000 VRB05KT P6SM BKN120
       
KSIF 240620Z AUTO 10SM CLR M01/M04 A3031 RMK AO2 T10081045
KIXA 240625Z AUTO 00000KT 10SM CLR 00/00 A3030 RMK AO2
KRCZ 240620Z AUTO 00000KT 10SM CLR 04/00 A3029 RMK AO2 T00350000
KRWI 240553Z AUTO 00000KT 10SM CLR 01/M01 A3030 RMK AO2 SLP261 T00061006 10106 20006 53003
KRWI 240530Z 2406/2506 00000KT P6SM SKC 
     FM250100 VRB05KT P6SM BKN120 
     FM250500 20007KT P6SM SCT100
       
KTDF 240620Z AUTO 00000KT 10SM CLR M01/M02 A3032 RMK AO2
KFQD 240620Z AUTO 00000KT 10SM CLR 03/M02 A3029 RMK AO2
KRUQ 240620Z AUTO 00000KT 10SM CLR 01/M02 A3029 RMK AO2 T00091020
KTTA 240630Z AUTO 00000KT 10SM CLR 00/M01 A3030 RMK AO2 T10041010
KEHO 240620Z AUTO 04005KT 10SM CLR 04/M01 A3029 RMK AO2 T00381013
KJNX 240625Z AUTO 00000KT 10SM CLR 01/01 A3030 RMK AO2
KSVH 240620Z AUTO 00000KT 10SM CLR 03/M01 A3028 RMK AO2 T00311010
K24A 240620Z AUTO 10003KT 10SM CLR 06/M03 A3030 RMK AO2 LTG DSNT NW T00621034
KETC 240620Z AUTO 00000KT 10SM CLR 01/00 A3030 RMK AO2 PWINO T00060002
KAFP 240620Z AUTO 00000KT 10SM CLR 01/M01 A3029 RMK AO2 T00101007
KOCW 240620Z AUTO 00000KT 10SM CLR 02/00 A3031 RMK AO2 T00191005
KCPC 240620Z AUTO 00000KT 10SM CLR 04/00 A3031 RMK AO2 T00390000
KILM 240553Z AUTO 00000KT 10SM CLR 06/03 A3031 RMK AO2 SLP264 T00560028 10150 20050 51004
KILM 240520Z 2406/2506 17010KT P6SM FEW250
       
KINT 240554Z AUTO 00000KT 10SM CLR 04/M06 A3030 RMK AO2 SLP261 T00391061 10150 20039 51006
KINT 240530Z 2406/2506 00000KT P6SM SKC 
     FM241800 22010G15KT P6SM FEW250 
     FM242300 21007KT P6SM BKN110